createdAt,value
2022-11-26T00:02:28.491Z,31.20
2022-11-26T00:04:58.533Z,26.75
2022-11-26T00:07:30.042Z,24.75
2022-11-26T00:09:59.349Z,25.98
2022-11-26T00:12:31.823Z,24.55
2022-11-26T00:15:10.444Z,23.25
2022-11-26T00:17:37.502Z,26.27
2022-11-26T00:20:05.179Z,26.30
2022-11-26T00:22:41.282Z,27.13
2022-11-26T00:25:15.803Z,25.45
2022-11-26T00:27:42.906Z,26.98
2022-11-26T00:30:30.212Z,25.13
2022-11-26T00:32:58.249Z,22.85
2022-11-26T00:35:25.480Z,27.85
2022-11-26T00:37:57.885Z,27.67
2022-11-26T00:40:32.677Z,26.83
2022-11-26T00:45:31.079Z,21.45
2022-11-26T00:47:58.457Z,28.38
2022-11-26T00:50:27.907Z,25.00
2022-11-26T00:52:57.323Z,40.15
2022-11-26T00:55:40.094Z,23.52
2022-11-26T00:58:21.212Z,23.92
2022-11-26T01:00:48.344Z,26.02
2022-11-26T01:03:15.502Z,28.23
2022-11-26T01:05:42.299Z,35.13
2022-11-26T01:08:32.591Z,25.92
2022-11-26T01:11:02.323Z,23.00
2022-11-26T01:13:30.065Z,21.27
2022-11-26T01:15:59.937Z,19.38
2022-11-26T01:18:28.114Z,25.70
2022-11-26T01:20:55.070Z,20.48
2022-11-26T01:23:22.258Z,20.85
2022-11-26T01:25:49.194Z,22.38
2022-11-26T01:28:19.682Z,19.23
2022-11-26T01:30:47.151Z,21.02
2022-11-26T01:33:14.269Z,21.38
2022-11-26T01:35:41.181Z,21.83
2022-11-26T01:38:15.123Z,18.85
2022-11-26T01:41:02.726Z,20.58
2022-11-26T01:43:39.334Z,18.13
2022-11-26T01:46:18.434Z,17.80
2022-11-26T01:48:48.826Z,21.30
2022-11-26T01:51:26.063Z,16.52
2022-11-26T01:53:58.988Z,16.50
2022-11-26T01:56:41.269Z,16.42
2022-11-26T01:59:33.018Z,18.50
2022-11-26T02:02:01.342Z,15.75
2022-11-26T02:04:36.337Z,14.13
2022-11-26T02:07:04.210Z,18.83
2022-11-26T02:09:32.065Z,15.82
2022-11-26T02:11:59.217Z,16.35
2022-11-26T02:14:33.998Z,14.77
2022-11-26T02:17:17.514Z,15.52
2022-11-26T02:20:25.331Z,19.33
2022-11-26T02:23:32.426Z,15.68
2022-11-26T02:26:47.778Z,15.30
2022-11-26T02:29:54.159Z,16.77
2022-11-26T02:32:40.460Z,14.88
2022-11-26T02:35:21.310Z,15.43
2022-11-26T02:37:55.993Z,16.27
2022-11-26T02:40:24.345Z,16.20
2022-11-26T02:42:51.509Z,16.00
2022-11-26T02:45:27.424Z,16.77
2022-11-26T02:48:00.269Z,17.45
2022-11-26T02:50:38.156Z,14.13
2022-11-26T02:53:07.195Z,13.40
2022-11-26T02:55:41.848Z,16.15
2022-11-26T02:58:09.239Z,14.70
2022-11-26T03:00:42.591Z,11.40
2022-11-26T03:03:24.112Z,15.70
2022-11-26T03:06:02.058Z,16.55
2022-11-26T03:08:33.069Z,11.20
2022-11-26T03:11:00.221Z,14.68
2022-11-26T03:13:27.956Z,12.35
2022-11-26T03:15:54.751Z,12.35
2022-11-26T03:18:21.943Z,15.82
2022-11-26T03:20:52.271Z,14.98
2022-11-26T03:23:20.032Z,13.38
2022-11-26T03:25:46.894Z,14.85
2022-11-26T03:28:13.985Z,17.15
2022-11-26T03:30:40.804Z,15.05
2022-11-26T03:33:07.941Z,20.40
2022-11-26T03:35:34.819Z,13.25
2022-11-26T03:38:01.935Z,11.27
2022-11-26T03:40:28.774Z,13.35
2022-11-26T03:42:55.862Z,12.20
2022-11-26T03:45:22.881Z,11.43
2022-11-26T03:47:50.001Z,16.48
2022-11-26T03:50:17.234Z,14.07
2022-11-26T03:52:44.807Z,11.50
2022-11-26T03:55:11.899Z,11.93
2022-11-26T03:57:39.253Z,12.38
2022-11-26T04:00:09.255Z,14.10
2022-11-26T04:02:36.646Z,13.10
2022-11-26T04:05:04.449Z,12.38
2022-11-26T04:07:31.552Z,12.95
2022-11-26T04:09:58.591Z,15.82
2022-11-26T04:12:25.617Z,11.43
2022-11-26T04:14:52.420Z,13.10
2022-11-26T04:17:19.496Z,11.55
2022-11-26T04:19:46.259Z,10.02
2022-11-26T04:22:13.442Z,11.23
2022-11-26T04:24:40.386Z,11.10
2022-11-26T04:27:07.694Z,14.73
2022-11-26T04:29:36.312Z,11.07
2022-11-26T04:32:05.001Z,12.85
2022-11-26T04:34:32.170Z,13.57
2022-11-26T04:36:59.306Z,10.07
2022-11-26T04:39:26.151Z,9.82
2022-11-26T04:41:53.249Z,17.88
2022-11-26T04:44:20.022Z,14.68
2022-11-26T04:46:47.178Z,15.30
2022-11-26T04:49:15.145Z,8.77
2022-11-26T04:51:42.250Z,11.95
2022-11-26T04:54:12.894Z,12.95
2022-11-26T04:56:40.562Z,14.70
2022-11-26T04:59:07.440Z,12.63
2022-11-26T05:01:34.734Z,12.15
2022-11-26T05:04:01.735Z,10.35
2022-11-26T05:06:28.889Z,11.85
2022-11-26T05:08:55.780Z,11.25
2022-11-26T05:11:22.885Z,10.50
2022-11-26T05:13:49.762Z,14.50
2022-11-26T05:16:16.845Z,11.63
2022-11-26T05:18:43.861Z,11.70
2022-11-26T05:21:10.976Z,12.20
2022-11-26T05:23:37.867Z,10.93
2022-11-26T05:26:05.137Z,15.02
2022-11-26T05:28:31.971Z,9.93
2022-11-26T05:31:01.257Z,10.85
2022-11-26T05:33:28.651Z,13.85
2022-11-26T05:35:55.920Z,19.65
2022-11-26T05:38:23.181Z,10.57
2022-11-26T05:40:50.358Z,9.10
2022-11-26T05:43:17.626Z,11.27
2022-11-26T05:45:44.695Z,11.63
2022-11-26T05:48:11.698Z,13.57
2022-11-26T05:50:38.769Z,12.10
2022-11-26T05:53:05.942Z,9.10
2022-11-26T05:55:33.200Z,12.07
2022-11-26T05:58:00.067Z,12.50
2022-11-26T06:00:27.757Z,15.15
2022-11-26T06:02:54.730Z,9.85
2022-11-26T06:05:22.418Z,11.85
2022-11-26T06:07:50.151Z,13.43
2022-11-26T06:10:17.783Z,8.80
2022-11-26T06:12:44.583Z,11.13
2022-11-26T06:15:11.713Z,8.93
2022-11-26T06:17:38.567Z,14.57
2022-11-26T06:20:06.731Z,11.80
2022-11-26T06:22:43.085Z,11.05
2022-11-26T06:25:14.194Z,12.32
2022-11-26T06:27:41.582Z,10.43
2022-11-26T06:30:11.540Z,10.00
2022-11-26T06:32:38.378Z,11.50
2022-11-26T06:35:06.012Z,10.57
2022-11-26T06:37:33.482Z,10.10
2022-11-26T06:40:00.994Z,9.02
2022-11-26T06:42:27.999Z,14.55
2022-11-26T06:44:59.582Z,11.35
2022-11-26T06:47:27.719Z,12.75
2022-11-26T06:49:54.908Z,12.98
2022-11-26T06:52:21.798Z,16.50
2022-11-26T06:54:50.121Z,8.95
2022-11-26T06:57:17.150Z,11.70
2022-11-26T06:59:44.275Z,13.38
2022-11-26T07:02:11.610Z,11.15
2022-11-26T07:04:39.124Z,11.18
2022-11-26T07:07:06.204Z,9.15
2022-11-26T07:09:33.273Z,10.95
2022-11-26T07:12:00.248Z,11.45
2022-11-26T07:14:27.374Z,9.07
2022-11-26T07:16:54.224Z,9.77
2022-11-26T07:19:21.382Z,12.10
2022-11-26T07:21:48.315Z,14.98
2022-11-26T07:24:16.550Z,9.43
2022-11-26T07:26:43.513Z,11.00
2022-11-26T07:29:10.639Z,9.88
2022-11-26T07:31:37.610Z,13.00
2022-11-26T07:34:04.897Z,13.40
2022-11-26T07:36:31.955Z,10.50
2022-11-26T07:39:02.741Z,7.88
2022-11-26T07:41:30.556Z,9.57
2022-11-26T07:43:58.380Z,11.25
2022-11-26T07:46:26.679Z,8.88
2022-11-26T07:48:56.709Z,11.52
2022-11-26T07:51:30.991Z,9.68
2022-11-26T07:54:04.865Z,10.82
2022-11-26T07:56:32.676Z,13.60
2022-11-26T07:59:01.223Z,9.18
2022-11-26T08:01:30.022Z,8.68
2022-11-26T08:04:00.389Z,11.40
2022-11-26T08:06:30.449Z,9.50
2022-11-26T08:09:00.942Z,12.07
2022-11-26T08:11:31.880Z,8.80
2022-11-26T08:14:06.442Z,9.15
2022-11-26T08:16:34.618Z,10.00
2022-11-26T08:19:07.156Z,18.65
2022-11-26T08:21:35.039Z,11.73
2022-11-26T08:24:03.818Z,9.25
2022-11-26T08:26:37.065Z,8.93
2022-11-26T08:29:06.965Z,8.18
2022-11-26T08:31:35.106Z,9.80
2022-11-26T08:34:03.786Z,13.32
2022-11-26T08:36:31.572Z,7.78
2022-11-26T08:39:00.719Z,14.75
2022-11-26T08:41:28.094Z,10.55
2022-11-26T08:44:10.901Z,13.55
2022-11-26T08:46:41.066Z,7.40
2022-11-26T08:49:13.171Z,11.80
2022-11-26T08:51:40.279Z,11.95
2022-11-26T08:54:08.006Z,8.77
2022-11-26T08:56:35.116Z,8.00
2022-11-26T08:59:03.218Z,6.22
2022-11-26T09:01:33.467Z,5.43
2022-11-26T09:04:03.577Z,6.18
2022-11-26T09:06:34.046Z,8.30
2022-11-26T09:09:14.600Z,10.00
2022-11-26T09:11:54.016Z,8.82
2022-11-26T09:14:25.150Z,8.77
2022-11-26T09:16:54.657Z,6.70
2022-11-26T09:19:22.876Z,4.75
2022-11-26T09:21:50.098Z,6.35
2022-11-26T09:24:17.994Z,8.57
2022-11-26T09:26:45.756Z,7.70
2022-11-26T09:29:15.890Z,6.68
2022-11-26T09:32:07.879Z,7.07
2022-11-26T09:34:32.520Z,7.15
2022-11-26T09:36:59.524Z,4.70
2022-11-26T09:39:26.994Z,18.83
2022-11-26T09:42:31.752Z,4.85
2022-11-26T09:45:26.484Z,6.55
2022-11-26T09:47:56.022Z,5.45
2022-11-26T09:50:35.457Z,7.90
2022-11-26T09:53:27.577Z,5.72
2022-11-26T09:55:56.456Z,8.15
2022-11-26T09:58:47.794Z,7.70
2022-11-26T10:01:21.117Z,9.10
2022-11-26T10:03:48.390Z,6.57
2022-11-26T10:06:37.452Z,6.97
2022-11-26T10:09:27.937Z,7.03
2022-11-26T10:12:25.019Z,8.30
2022-11-26T10:15:13.158Z,7.07
2022-11-26T10:17:52.171Z,6.88
2022-11-26T10:20:50.386Z,7.97
2022-11-26T10:23:36.504Z,5.68
2022-11-26T10:26:17.226Z,6.82
2022-11-26T10:28:48.707Z,7.43
2022-11-26T10:31:27.207Z,6.85
2022-11-26T10:34:09.600Z,6.22
2022-11-26T10:36:40.437Z,5.85
2022-11-26T10:39:14.358Z,7.55
2022-11-26T10:41:41.410Z,7.55
2022-11-26T10:44:41.699Z,7.13
2022-11-26T10:47:31.758Z,6.32
2022-11-26T10:50:25.099Z,6.07
2022-11-26T10:52:53.326Z,7.93
2022-11-26T10:55:37.596Z,6.22
2022-11-26T10:58:16.887Z,6.70
2022-11-26T11:01:05.928Z,13.00
2022-11-26T11:04:07.835Z,6.00
2022-11-26T11:06:43.214Z,4.03
2022-11-26T11:09:31.793Z,8.75
2022-11-26T11:12:11.141Z,11.40
2022-11-26T11:14:43.101Z,6.13
2022-11-26T11:17:31.574Z,9.60
2022-11-26T11:20:06.841Z,6.88
2022-11-26T11:22:35.950Z,5.57
2022-11-26T11:25:03.051Z,3.15
2022-11-26T11:27:44.019Z,5.22
2022-11-26T11:30:30.778Z,9.85
2022-11-26T11:33:20.700Z,5.25
2022-11-26T11:36:16.465Z,6.10
2022-11-26T11:38:59.225Z,4.60
2022-11-26T11:41:49.018Z,9.15
2022-11-26T11:44:23.849Z,7.10
2022-11-26T11:47:31.731Z,7.05
2022-11-26T11:50:29.316Z,7.93
2022-11-26T11:53:44.634Z,7.13
2022-11-26T11:56:41.936Z,8.13
2022-11-26T11:59:11.666Z,5.47
2022-11-26T12:02:13.342Z,8.25
2022-11-26T12:05:14.408Z,6.78
2022-11-26T12:08:17.527Z,7.20
2022-11-26T12:11:30.628Z,7.88
2022-11-26T12:14:41.818Z,6.28
2022-11-26T12:17:33.215Z,8.30
2022-11-26T12:20:15.523Z,4.07
2022-11-26T12:22:51.864Z,5.97
2022-11-26T12:25:37.119Z,8.30
2022-11-26T12:28:15.947Z,7.20
2022-11-26T12:30:43.096Z,7.80
2022-11-26T12:33:20.873Z,5.30
2022-11-26T12:35:58.760Z,4.18
2022-11-26T12:38:35.027Z,6.82
2022-11-26T12:41:20.426Z,4.05
2022-11-26T12:44:04.206Z,6.75
2022-11-26T12:46:45.291Z,6.63
2022-11-26T12:49:27.889Z,6.90
2022-11-26T12:52:30.644Z,8.30
2022-11-26T12:55:03.530Z,5.75
2022-11-26T12:57:41.242Z,7.25
2022-11-26T13:00:36.203Z,9.73
2022-11-26T13:03:07.102Z,5.30
2022-11-26T13:06:11.778Z,10.50
2022-11-26T13:09:04.808Z,8.85
2022-11-26T13:11:50.013Z,5.97
2022-11-26T13:17:36.507Z,10.70
2022-11-26T13:20:28.306Z,9.00
2022-11-26T13:23:41.186Z,4.47
2022-11-26T13:26:18.516Z,8.55
2022-11-26T13:29:15.695Z,6.00
2022-11-26T13:32:09.864Z,10.13
2022-11-26T13:35:04.396Z,10.20
2022-11-26T13:38:03.909Z,9.80
2022-11-26T13:40:46.032Z,9.32
2022-11-26T13:44:11.486Z,11.73
2022-11-26T13:46:51.820Z,13.05
2022-11-26T13:49:56.096Z,11.52
2022-11-26T13:52:31.910Z,6.10
2022-11-26T13:55:11.186Z,12.45
2022-11-26T13:57:55.672Z,10.25
2022-11-26T14:00:35.519Z,9.40
2022-11-26T14:03:03.951Z,8.10
2022-11-26T14:05:49.380Z,7.57
2022-11-26T14:08:48.525Z,7.50
2022-11-26T14:11:40.788Z,8.27
2022-11-26T14:14:26.235Z,10.10
2022-11-26T14:17:02.797Z,14.35
2022-11-26T14:19:44.524Z,6.20
2022-11-26T14:22:11.626Z,6.47
2022-11-26T14:24:50.795Z,11.13
2022-11-26T14:27:29.088Z,15.15
2022-11-26T14:30:08.339Z,9.27
2022-11-26T14:32:55.022Z,8.77
2022-11-26T14:35:38.321Z,3.35
2022-11-26T14:38:23.214Z,10.60
2022-11-26T14:41:00.976Z,6.63
2022-11-26T14:43:30.844Z,8.50
2022-11-26T14:46:04.182Z,7.03
2022-11-26T14:48:35.469Z,7.03
2022-11-26T14:51:04.725Z,9.80
2022-11-26T14:53:34.775Z,9.32
2022-11-26T14:56:03.561Z,6.47
2022-11-26T14:58:39.653Z,12.60
2022-11-26T15:01:23.835Z,13.32
2022-11-26T15:04:27.544Z,10.38
2022-11-26T15:06:54.848Z,8.48
2022-11-26T15:09:25.843Z,15.52
2022-11-26T15:12:15.140Z,10.02
2022-11-26T15:15:04.362Z,11.40
2022-11-26T15:17:33.847Z,10.35
2022-11-26T15:20:06.711Z,12.23
2022-11-26T15:22:42.550Z,6.50
2022-11-26T15:25:21.896Z,12.20
2022-11-26T15:27:59.702Z,8.15
2022-11-26T15:30:36.984Z,10.50
2022-11-26T15:33:12.865Z,15.40
2022-11-26T15:35:41.440Z,7.40
2022-11-26T15:38:15.445Z,6.85
2022-11-26T15:40:56.615Z,9.25
2022-11-26T15:43:44.848Z,13.52
2022-11-26T15:46:22.395Z,7.72
2022-11-26T15:49:01.334Z,8.95
2022-11-26T15:51:37.387Z,10.13
2022-11-26T15:54:23.853Z,13.25
2022-11-26T15:56:58.186Z,7.90
2022-11-26T15:59:30.226Z,11.20
2022-11-26T16:02:16.444Z,9.75
2022-11-26T16:04:46.948Z,6.50
2022-11-26T16:07:23.457Z,10.10
2022-11-26T16:10:09.664Z,11.30
2022-11-26T16:12:40.600Z,23.13
2022-11-26T16:15:26.767Z,10.73
2022-11-26T16:17:54.114Z,12.90
2022-11-26T16:20:28.880Z,7.38
2022-11-26T16:25:33.432Z,9.35
2022-11-26T16:28:13.287Z,9.18
2022-11-26T16:30:44.063Z,11.52
2022-11-26T16:33:11.512Z,15.20
2022-11-26T16:35:47.599Z,9.00
2022-11-26T16:38:21.438Z,8.00
2022-11-26T16:40:49.863Z,9.57
2022-11-26T16:43:17.574Z,11.68
2022-11-26T16:45:47.598Z,7.85
2022-11-26T16:48:27.757Z,12.00
2022-11-26T16:50:57.384Z,10.10
2022-11-26T16:53:24.616Z,14.38
2022-11-26T16:55:54.199Z,14.75
2022-11-26T16:58:43.274Z,8.65
2022-11-26T17:01:10.477Z,11.15
2022-11-26T17:03:37.869Z,9.98
2022-11-26T17:06:14.658Z,10.40
2022-11-26T17:08:47.907Z,14.23
2022-11-26T17:11:17.590Z,11.57
2022-11-26T17:13:44.833Z,13.52
2022-11-26T17:16:21.491Z,17.77
2022-11-26T17:18:50.004Z,13.27
2022-11-26T17:21:17.029Z,14.15
2022-11-26T17:23:44.116Z,10.77
2022-11-26T17:26:21.468Z,14.88
2022-11-26T17:28:50.590Z,10.32
2022-11-26T17:31:17.912Z,15.45
2022-11-26T17:33:45.197Z,12.63
2022-11-26T17:36:22.588Z,20.80
2022-11-26T17:38:50.961Z,9.68
2022-11-26T17:41:18.535Z,12.70
2022-11-26T17:43:46.026Z,13.38
2022-11-26T17:46:19.446Z,13.20
2022-11-26T17:48:48.565Z,13.25
2022-11-26T17:51:17.194Z,17.65
2022-11-26T17:53:45.201Z,16.13
2022-11-26T17:56:19.797Z,15.38
2022-11-26T17:58:50.586Z,21.27
2022-11-26T18:01:18.169Z,14.27
2022-11-26T18:03:47.030Z,16.77
2022-11-26T18:06:32.182Z,12.45
2022-11-26T18:11:46.081Z,17.70
2022-11-26T18:14:13.894Z,14.68
2022-11-26T18:16:40.982Z,13.25
2022-11-26T18:19:10.610Z,15.45
2022-11-26T18:21:39.361Z,9.60
2022-11-26T18:24:07.531Z,15.27
2022-11-26T18:26:35.619Z,12.45
2022-11-26T18:29:03.927Z,14.10
2022-11-26T18:31:37.986Z,18.42
2022-11-26T18:34:07.766Z,15.43
2022-11-26T18:36:34.777Z,14.65
2022-11-26T18:39:05.797Z,17.75
2022-11-26T18:41:33.792Z,19.50
2022-11-26T18:44:05.182Z,19.42
2022-11-26T18:46:32.736Z,21.83
2022-11-26T18:49:00.691Z,18.42
2022-11-26T18:51:27.895Z,14.80
2022-11-26T18:53:57.470Z,16.98
2022-11-26T18:56:24.509Z,15.65
2022-11-26T18:58:55.419Z,20.08
2022-11-26T19:01:27.719Z,14.93
2022-11-26T19:03:56.211Z,18.05
2022-11-26T19:06:27.510Z,16.52
2022-11-26T19:09:14.353Z,15.18
2022-11-26T19:11:41.326Z,16.00
2022-11-26T19:14:12.082Z,14.90
2022-11-26T19:16:41.239Z,14.73
2022-11-26T19:19:08.964Z,13.18
2022-11-26T19:21:37.361Z,13.32
2022-11-26T19:24:07.721Z,17.50
2022-11-26T19:26:37.524Z,13.80
2022-11-26T19:29:07.020Z,16.83
2022-11-26T19:31:35.982Z,18.42
2022-11-26T19:34:10.025Z,15.85
2022-11-26T19:36:37.849Z,24.27
2022-11-26T19:39:09.080Z,14.90
2022-11-26T19:41:35.901Z,18.52
2022-11-26T19:44:06.944Z,19.77
2022-11-26T19:46:40.670Z,13.07
2022-11-26T19:49:15.102Z,20.53
2022-11-26T19:51:42.399Z,25.65
2022-11-26T19:54:10.446Z,18.92
2022-11-26T19:56:38.057Z,20.88
2022-11-26T19:59:05.659Z,18.02
2022-11-26T20:01:35.323Z,20.70
2022-11-26T20:04:06.814Z,23.67
2022-11-26T20:06:36.225Z,22.00
2022-11-26T20:09:05.851Z,25.38
2022-11-26T20:11:38.830Z,17.23
2022-11-26T20:14:10.873Z,22.42
2022-11-26T20:16:40.961Z,20.25
2022-11-26T20:19:10.027Z,28.45
2022-11-26T20:21:38.028Z,22.17
2022-11-26T20:24:15.028Z,21.70
2022-11-26T20:26:45.066Z,15.18
2022-11-26T20:29:17.099Z,20.50
2022-11-26T20:31:52.958Z,14.45
2022-11-26T20:34:26.300Z,22.35
2022-11-26T20:36:53.318Z,21.55
2022-11-26T20:39:23.573Z,19.00
2022-11-26T20:41:51.104Z,26.52
2022-11-26T20:44:18.358Z,29.30
2022-11-26T20:46:45.457Z,15.95
2022-11-26T20:49:12.813Z,18.95
2022-11-26T20:51:39.910Z,21.33
2022-11-26T20:54:09.984Z,26.35
2022-11-26T20:56:37.562Z,18.45
2022-11-26T20:59:04.832Z,18.90
2022-11-26T21:01:33.732Z,24.58
2022-11-26T21:04:01.361Z,18.48
2022-11-26T21:06:30.646Z,23.42
2022-11-26T21:09:06.376Z,19.13
2022-11-26T21:11:33.320Z,16.35
2022-11-26T21:14:01.889Z,19.75
2022-11-26T21:16:30.566Z,16.45
2022-11-26T21:19:01.019Z,20.25
2022-11-26T21:21:29.379Z,22.42
2022-11-26T21:23:58.112Z,19.35
2022-11-26T21:26:26.653Z,18.95
2022-11-26T21:28:57.930Z,19.73
2022-11-26T21:31:27.388Z,21.10
2022-11-26T21:34:03.177Z,20.02
2022-11-26T21:36:34.904Z,19.35
2022-11-26T21:39:03.298Z,23.70
2022-11-26T21:41:33.496Z,20.48
2022-11-26T21:44:04.012Z,23.77
2022-11-26T21:46:38.647Z,19.42
2022-11-26T21:49:07.803Z,17.92
2022-11-26T21:51:35.123Z,23.00
2022-11-26T21:54:02.290Z,18.60
2022-11-26T21:56:32.104Z,19.52
2022-11-26T21:59:03.698Z,22.50
2022-11-26T22:01:37.291Z,23.00
2022-11-26T22:04:13.036Z,27.35
2022-11-26T22:06:41.003Z,25.77
2022-11-26T22:09:09.411Z,26.58
2022-11-26T22:11:40.028Z,20.58
2022-11-26T22:14:14.074Z,19.67
2022-11-26T22:16:44.390Z,24.73
2022-11-26T22:19:11.658Z,18.48
2022-11-26T22:21:41.694Z,22.80
2022-11-26T22:24:15.213Z,25.05
2022-11-26T22:26:43.476Z,23.92
2022-11-26T22:29:14.856Z,21.58
2022-11-26T22:31:42.977Z,26.50
2022-11-26T22:34:13.751Z,24.35
2022-11-26T22:36:43.865Z,24.23
2022-11-26T22:39:15.552Z,22.20
2022-11-26T22:41:44.491Z,28.20
2022-11-26T22:44:13.799Z,24.25
2022-11-26T22:46:44.140Z,24.10
2022-11-26T22:49:15.663Z,23.30
2022-11-26T22:51:42.789Z,18.30
2022-11-26T22:54:14.204Z,22.05
2022-11-26T22:56:41.221Z,20.20
2022-11-26T22:59:13.564Z,24.25
2022-11-26T23:01:43.844Z,23.77
2022-11-26T23:04:12.109Z,34.83
2022-11-26T23:06:39.923Z,21.23
2022-11-26T23:09:11.475Z,24.27
2022-11-26T23:11:47.443Z,23.02
2022-11-26T23:14:14.551Z,23.95
2022-11-26T23:16:43.469Z,22.67
2022-11-26T23:19:15.957Z,29.55
2022-11-26T23:21:44.766Z,24.33
2022-11-26T23:24:14.201Z,26.55
2022-11-26T23:26:41.880Z,20.15
2022-11-26T23:29:10.602Z,17.90
2022-11-26T23:31:41.606Z,18.90
2022-11-26T23:34:10.370Z,27.25
2022-11-26T23:36:38.533Z,22.08
2022-11-26T23:39:08.526Z,22.67
2022-11-26T23:41:35.452Z,23.20
2022-11-26T23:44:03.565Z,20.23
2022-11-26T23:46:33.158Z,23.45
2022-11-26T23:49:00.247Z,23.50
2022-11-26T23:51:32.148Z,22.70
2022-11-26T23:53:59.256Z,20.70
2022-11-26T23:56:33.390Z,24.35
2022-11-26T23:59:03.817Z,23.63
